Time;durP1;ratioP1;P1;durP2;ratioP2;P2;SDS_P1;SDS_P2;PMS_P1;PMS_P2;Temp;Humidity;BMP_temperature;BMP_pressure;BME280_temperature;BME280_humidity;BME280_pressure;Samples;Min_cycle;Max_cycle;Signal;HPM_P1;HPM_P2
2024/02/23 00:02:04;;;;;;;0.90;0.32;;;6.50;99.90;;;;;;4948705;28;20035;-83
2024/02/23 00:04:29;;;;;;;0.45;0.45;;;6.50;99.90;;;;;;4934424;28;20046;-83
2024/02/23 00:06:55;;;;;;;0.50;0.32;;;6.50;99.90;;;;;;4936880;28;20034;-83
2024/02/23 00:09:20;;;;;;;0.65;0.35;;;6.30;99.90;;;;;;4920365;28;20393;-83
2024/02/23 00:11:47;;;;;;;1.98;0.43;;;6.50;99.90;;;;;;4946812;28;20404;-83
2024/02/23 00:14:18;;;;;;;0.60;0.50;;;6.50;99.90;;;;;;4929138;28;20040;-84
2024/02/23 00:16:44;;;;;;;1.35;0.40;;;6.40;99.90;;;;;;4931847;28;20035;-83
2024/02/23 00:19:09;;;;;;;1.58;0.35;;;6.40;99.90;;;;;;4909207;28;20023;-83
2024/02/23 00:21:49;;;;;;;0.43;0.40;;;6.40;99.90;;;;;;4884970;28;20117;-83
2024/02/23 00:24:21;;;;;;;0.57;0.40;;;6.40;99.90;;;;;;4904126;29;20031;-83
2024/02/23 00:26:52;;;;;;;0.30;0.30;;;6.40;99.90;;;;;;4921500;29;20039;-84
2024/02/23 00:29:17;;;;;;;1.73;0.30;;;6.40;99.90;;;;;;4919642;29;20036;-84
2024/02/23 00:31:45;;;;;;;1.70;0.68;;;6.40;99.90;;;;;;4943899;28;20400;-84
2024/02/23 00:34:12;;;;;;;0.40;0.40;;;6.30;99.90;;;;;;4924042;28;20574;-84
2024/02/23 00:36:44;;;;;;;0.95;0.60;;;6.30;99.90;;;;;;4962567;28;20528;-83
2024/02/23 00:39:10;;;;;;;0.28;0.25;;;6.40;99.90;;;;;;4918395;28;20111;-83
2024/02/23 00:41:35;;;;;;;1.80;0.60;;;6.40;99.90;;;;;;4926380;28;20027;-83
2024/02/23 00:44:05;;;;;;;0.30;0.20;;;6.40;99.90;;;;;;4932484;28;20042;-84
2024/02/23 00:46:34;;;;;;;0.40;0.40;;;6.20;99.90;;;;;;4917065;28;20067;-85
2024/02/23 00:48:59;;;;;;;0.40;0.40;;;6.30;99.90;;;;;;4930347;28;20051;-83
2024/02/23 00:51:25;;;;;;;0.35;0.35;;;6.30;99.90;;;;;;4947847;28;20496;-84
2024/02/23 00:53:52;;;;;;;1.75;0.50;;;6.30;99.90;;;;;;4962901;28;20063;-84
2024/02/23 00:56:18;;;;;;;1.50;0.50;;;6.30;99.90;;;;;;4923346;29;20126;-84
2024/02/23 00:58:44;;;;;;;1.48;0.40;;;6.20;99.90;;;;;;4923266;28;20106;-83
2024/02/23 01:01:10;;;;;;;1.80;0.57;;;6.20;99.90;;;;;;4927265;28;20485;-83
2024/02/23 01:03:35;;;;;;;0.38;0.20;;;6.20;99.90;;;;;;4935071;28;20033;-81
2024/02/23 01:06:01;;;;;;;0.88;0.68;;;6.30;99.90;;;;;;4947968;28;20039;-84
2024/02/23 01:08:26;;;;;;;0.80;0.55;;;6.20;99.90;;;;;;4958630;28;20424;-84
2024/02/23 01:10:52;;;;;;;0.55;0.55;;;6.10;99.90;;;;;;4948898;28;20122;-83
2024/02/23 01:13:19;;;;;;;0.30;0.30;;;6.20;99.90;;;;;;4946526;28;20087;-84
2024/02/23 01:15:45;;;;;;;1.70;0.40;;;6.00;99.90;;;;;;4961664;28;20035;-84
2024/02/23 01:18:10;;;;;;;0.43;0.40;;;6.10;99.90;;;;;;4932790;28;20031;-84
2024/02/23 01:20:36;;;;;;;0.25;0.25;;;6.00;99.90;;;;;;4933994;28;20094;-84
2024/02/23 01:23:02;;;;;;;1.67;0.60;;;6.00;99.90;;;;;;4957880;28;20834;-84
2024/02/23 01:25:27;;;;;;;0.43;0.30;;;6.00;99.90;;;;;;4932190;28;20126;-84
2024/02/23 01:27:53;;;;;;;0.40;0.40;;;5.80;99.90;;;;;;4948000;28;20033;-84
2024/02/23 01:30:21;;;;;;;4.53;0.57;;;5.90;99.90;;;;;;4933504;29;20035;-84
2024/02/23 01:32:46;;;;;;;2.00;0.60;;;5.90;99.90;;;;;;4933377;28;20445;-84
2024/02/23 01:35:12;;;;;;;1.30;0.50;;;5.80;99.90;;;;;;4917015;29;20036;-86
2024/02/23 01:37:38;;;;;;;1.73;1.02;;;5.80;99.90;;;;;;4950279;28;20043;-86
2024/02/23 01:40:06;;;;;;;0.22;0.20;;;5.80;99.90;;;;;;4934549;28;20031;-85
2024/02/23 01:42:37;;;;;;;0.40;0.30;;;5.90;99.90;;;;;;4949123;28;20130;-84
2024/02/23 01:45:03;;;;;;;0.80;0.50;;;5.90;99.90;;;;;;4948331;28;20038;-86
2024/02/23 01:47:29;;;;;;;0.40;0.40;;;5.90;99.90;;;;;;4933423;28;20043;-85
2024/02/23 01:49:55;;;;;;;0.80;0.30;;;5.90;99.90;;;;;;4917415;28;20044;-85
2024/02/23 01:52:20;;;;;;;0.80;0.35;;;5.90;99.90;;;;;;4932671;29;20036;-85
2024/02/23 01:54:46;;;;;;;1.15;0.52;;;5.90;99.90;;;;;;4934517;28;20082;-85
2024/02/23 01:57:11;;;;;;;2.72;0.52;;;6.00;99.90;;;;;;4934354;28;21670;-85
2024/02/23 01:59:38;;;;;;;1.75;0.70;;;6.00;99.90;;;;;;4933812;28;20475;-86
2024/02/23 02:02:04;;;;;;;0.88;0.43;;;6.00;99.90;;;;;;4934553;28;20031;-85
2024/02/23 02:04:29;;;;;;;0.30;0.20;;;5.90;99.90;;;;;;4946123;28;20082;-83
2024/02/23 02:06:55;;;;;;;1.17;0.43;;;5.80;99.90;;;;;;4942974;28;20047;-85
2024/02/23 02:09:20;;;;;;;0.35;0.35;;;5.90;99.90;;;;;;4933314;29;20472;-85
2024/02/23 02:11:47;;;;;;;1.08;0.60;;;5.90;99.90;;;;;;4948407;28;20047;-85
2024/02/23 02:14:13;;;;;;;2.47;0.35;;;5.90;99.90;;;;;;4934329;28;20086;-85
2024/02/23 02:16:39;;;;;;;2.67;0.52;;;5.90;99.90;;;;;;4933742;28;20035;-85
2024/02/23 02:19:04;;;;;;;1.20;0.35;;;5.90;99.90;;;;;;4963126;28;20024;-85
2024/02/23 02:21:31;;;;;;;0.63;0.30;;;5.90;99.90;;;;;;4933324;28;20390;-85
2024/02/23 02:23:57;;;;;;;0.40;0.30;;;5.90;99.90;;;;;;4932061;28;20055;-85
2024/02/23 02:26:22;;;;;;;1.60;0.40;;;5.90;99.90;;;;;;4961128;28;20103;-85
2024/02/23 02:28:48;;;;;;;0.60;0.40;;;5.90;99.90;;;;;;4916617;29;20057;-85
2024/02/23 02:31:13;;;;;;;3.08;0.30;;;6.00;99.90;;;;;;4918216;28;20028;-84
2024/02/23 02:33:40;;;;;;;1.35;0.73;;;6.00;99.90;;;;;;4933846;28;20027;-85
2024/02/23 02:36:06;;;;;;;0.80;0.28;;;5.90;99.90;;;;;;4918469;28;20055;-84
2024/02/23 02:38:33;;;;;;;4.72;0.63;;;5.90;99.90;;;;;;4929825;29;20058;-85
2024/02/23 02:41:01;;;;;;;7.43;0.75;;;6.00;99.90;;;;;;4932748;28;20036;-85
2024/02/23 02:43:27;;;;;;;6.65;0.88;;;6.00;99.90;;;;;;4915253;28;20028;-86
2024/02/23 02:45:53;;;;;;;4.20;0.77;;;5.90;99.90;;;;;;4947285;28;20038;-82
2024/02/23 02:48:18;;;;;;;1.95;0.45;;;6.00;99.90;;;;;;4916754;29;20401;-85
2024/02/23 02:50:44;;;;;;;0.38;0.25;;;5.90;99.90;;;;;;4946528;28;20437;-85
2024/02/23 02:53:10;;;;;;;4.97;0.90;;;5.90;99.90;;;;;;4948396;28;20701;-85
2024/02/23 02:55:36;;;;;;;2.58;0.40;;;5.90;99.90;;;;;;4916341;28;20034;-87
2024/02/23 02:58:05;;;;;;;1.58;0.30;;;5.90;99.90;;;;;;4945960;28;20165;-86
2024/02/23 03:00:31;;;;;;;1.95;0.35;;;5.90;99.90;;;;;;4947082;28;20035;-85
2024/02/23 03:02:57;;;;;;;1.17;0.28;;;5.90;99.90;;;;;;4936871;28;20055;-86
2024/02/23 03:05:25;;;;;;;1.75;0.50;;;6.00;99.90;;;;;;4947706;28;20147;-86
2024/02/23 03:07:51;;;;;;;1.80;0.60;;;6.00;99.90;;;;;;4942705;29;20039;-86
2024/02/23 03:10:17;;;;;;;0.98;0.32;;;6.00;99.90;;;;;;4953488;28;20042;-87
2024/02/23 03:12:42;;;;;;;0.63;0.20;;;6.00;99.90;;;;;;4932785;28;20027;-85
2024/02/23 03:15:10;;;;;;;1.48;0.43;;;6.00;99.90;;;;;;4931590;28;20035;-86
2024/02/23 03:17:35;;;;;;;0.93;0.45;;;5.90;99.90;;;;;;4909658;29;20118;-86
2024/02/23 03:20:01;;;;;;;1.45;0.38;;;5.90;99.90;;;;;;4945569;28;20144;-85
2024/02/23 03:22:27;;;;;;;0.90;0.47;;;5.90;99.90;;;;;;4947275;28;20039;-85
2024/02/23 03:24:52;;;;;;;3.85;0.65;;;5.90;99.90;;;;;;4915492;29;20042;-80
2024/02/23 03:27:18;;;;;;;0.75;0.30;;;5.90;99.90;;;;;;4929859;28;20065;-79
2024/02/23 03:29:44;;;;;;;4.05;0.32;;;5.90;99.90;;;;;;4914261;28;20152;-79
2024/02/23 03:32:09;;;;;;;1.33;0.40;;;5.90;99.90;;;;;;4942945;28;20448;-79
2024/02/23 03:34:35;;;;;;;4.13;0.43;;;5.90;99.90;;;;;;4913057;28;20027;-79
2024/02/23 03:37:02;;;;;;;3.80;0.47;;;5.90;99.90;;;;;;4929320;28;20520;-80
2024/02/23 03:39:28;;;;;;;1.65;0.60;;;5.80;99.90;;;;;;4945216;28;20564;-79
2024/02/23 03:41:54;;;;;;;6.22;0.55;;;5.80;99.90;;;;;;4931103;29;20108;-78
2024/02/23 03:44:19;;;;;;;2.45;0.45;;;5.90;99.90;;;;;;4930008;29;20487;-79
2024/02/23 03:46:45;;;;;;;1.65;0.43;;;5.90;99.90;;;;;;4928815;28;20062;-79
2024/02/23 03:49:11;;;;;;;3.88;0.65;;;5.90;99.90;;;;;;4927211;28;20413;-79
2024/02/23 03:51:39;;;;;;;0.68;0.20;;;5.80;99.90;;;;;;4927259;28;20063;-79
2024/02/23 03:54:05;;;;;;;0.40;0.30;;;5.80;99.90;;;;;;4929506;28;20023;-80
2024/02/23 03:56:41;;;;;;;1.20;0.20;;;5.80;99.90;;;;;;4929023;28;20390;-79
2024/02/23 03:59:09;;;;;;;0.10;0.10;;;5.90;99.90;;;;;;4946359;28;20027;-77
2024/02/23 04:01:39;;;;;;;0.98;0.25;;;5.90;99.90;;;;;;4940303;28;20035;-78
2024/02/23 04:04:05;;;;;;;1.20;0.40;;;5.90;99.90;;;;;;4945075;28;20039;-78
2024/02/23 04:06:30;;;;;;;3.42;0.50;;;5.90;99.90;;;;;;4954979;28;20058;-79
2024/02/23 04:08:56;;;;;;;1.35;0.30;;;5.90;99.90;;;;;;4913879;28;20086;-79
2024/02/23 04:11:22;;;;;;;1.85;0.50;;;5.90;99.90;;;;;;4928844;29;20492;-78
2024/02/23 04:13:47;;;;;;;2.05;0.70;;;5.90;99.90;;;;;;4944455;28;20031;-78
2024/02/23 04:16:13;;;;;;;0.82;0.30;;;5.90;99.90;;;;;;4925734;29;20028;-78
2024/02/23 04:18:38;;;;;;;0.73;0.20;;;5.80;99.90;;;;;;4929916;28;20028;-78
2024/02/23 04:21:04;;;;;;;0.30;0.17;;;5.90;99.90;;;;;;4956546;28;20063;-77
2024/02/23 04:23:30;;;;;;;2.72;0.40;;;5.90;99.90;;;;;;4929169;28;20096;-78
2024/02/23 04:25:55;;;;;;;1.05;0.32;;;5.90;99.90;;;;;;4913228;29;20036;-78
2024/02/23 04:28:21;;;;;;;1.88;0.45;;;5.90;99.90;;;;;;4929493;29;20032;-78
2024/02/23 04:30:47;;;;;;;0.08;0.08;;;5.80;99.90;;;;;;4914035;28;20540;-78
2024/02/23 04:33:12;;;;;;;1.50;0.15;;;5.80;99.90;;;;;;4912421;28;20028;-85
2024/02/23 04:35:38;;;;;;;0.40;0.10;;;5.80;99.90;;;;;;4929731;28;20062;-78
2024/02/23 04:38:03;;;;;;;2.58;0.88;;;5.80;99.90;;;;;;4913912;29;20059;-78
2024/02/23 04:40:30;;;;;;;3.72;0.43;;;5.90;99.90;;;;;;4929047;28;20046;-78
2024/02/23 04:42:56;;;;;;;1.00;0.25;;;5.90;99.90;;;;;;4913887;29;20572;-78
2024/02/23 04:45:21;;;;;;;2.88;0.55;;;5.90;99.90;;;;;;4945661;28;20046;-79
2024/02/23 04:47:48;;;;;;;3.40;0.60;;;5.90;99.90;;;;;;4914044;29;20048;-79
2024/02/23 04:50:14;;;;;;;1.90;0.30;;;5.80;99.90;;;;;;4943500;28;20044;-78
2024/02/23 04:52:40;;;;;;;1.70;0.75;;;5.80;99.90;;;;;;4944407;29;20043;-79
2024/02/23 04:55:05;;;;;;;0.28;0.20;;;5.80;99.90;;;;;;4941767;28;20035;-78
2024/02/23 04:57:33;;;;;;;2.53;0.30;;;5.90;99.90;;;;;;4928773;29;20077;-78
2024/02/23 04:59:59;;;;;;;1.45;0.38;;;5.90;99.90;;;;;;4943039;28;20090;-79
2024/02/23 05:02:28;;;;;;;2.17;0.43;;;5.80;99.90;;;;;;4944798;29;20397;-79
2024/02/23 05:04:54;;;;;;;3.67;0.43;;;5.90;99.90;;;;;;4956016;28;20495;-78
2024/02/23 05:07:19;;;;;;;1.75;0.47;;;5.90;99.90;;;;;;4956709;28;20038;-78
2024/02/23 05:09:45;;;;;;;2.03;0.70;;;5.80;99.90;;;;;;4928301;29;20101;-79
2024/02/23 05:12:10;;;;;;;4.97;0.50;;;5.80;99.90;;;;;;4926643;28;20046;-79
2024/02/23 05:14:36;;;;;;;3.53;0.65;;;5.80;99.90;;;;;;4926878;28;20073;-78
2024/02/23 05:17:03;;;;;;;6.90;0.80;;;5.80;99.90;;;;;;4956076;28;20062;-78
2024/02/23 05:19:29;;;;;;;1.73;0.68;;;5.80;99.90;;;;;;4957353;28;20028;-79
2024/02/23 05:21:57;;;;;;;7.05;1.95;;;5.80;99.90;;;;;;4931556;29;20514;-79
2024/02/23 05:24:22;;;;;;;3.25;0.47;;;5.80;99.90;;;;;;4945384;28;20496;-79
2024/02/23 05:26:48;;;;;;;1.55;0.52;;;5.80;99.90;;;;;;4944414;28;20143;-79
2024/02/23 05:29:17;;;;;;;3.03;0.57;;;5.80;99.90;;;;;;4944834;29;20076;-79
2024/02/23 05:31:51;;;;;;;0.45;0.30;;;5.90;99.90;;;;;;4945354;28;20048;-79
2024/02/23 05:34:18;;;;;;;6.20;0.57;;;5.80;99.90;;;;;;4922772;28;20560;-79
2024/02/23 05:36:43;;;;;;;4.93;0.75;;;5.90;99.90;;;;;;4930032;28;20493;-79
2024/02/23 05:39:09;;;;;;;5.22;0.30;;;5.80;99.90;;;;;;4934903;28;20063;-79
2024/02/23 05:41:36;;;;;;;0.55;0.10;;;5.80;99.90;;;;;;4947645;28;20043;-79
2024/02/23 05:44:05;;;;;;;2.13;0.65;;;5.80;99.90;;;;;;4961652;28;20039;-80
2024/02/23 05:46:34;;;;;;;3.05;0.40;;;5.80;99.90;;;;;;4928336;28;20031;-79
2024/02/23 05:48:59;;;;;;;6.45;0.85;;;5.80;99.90;;;;;;4952721;28;20122;-79
2024/02/23 05:51:25;;;;;;;4.40;0.70;;;5.80;99.90;;;;;;4929545;29;20118;-79
2024/02/23 05:53:51;;;;;;;6.07;0.43;;;5.80;99.90;;;;;;4946655;28;20024;-79
2024/02/23 05:56:16;;;;;;;2.88;0.85;;;5.80;99.90;;;;;;4930868;28;20058;-78
2024/02/23 05:58:43;;;;;;;5.55;1.05;;;5.70;99.90;;;;;;4958299;28;20031;-78
2024/02/23 06:01:09;;;;;;;0.68;0.60;;;5.70;99.90;;;;;;4930291;28;20548;-78
2024/02/23 06:03:34;;;;;;;0.90;0.43;;;5.70;99.90;;;;;;4947581;28;20035;-78
2024/02/23 06:06:00;;;;;;;7.07;0.77;;;5.60;99.90;;;;;;4947291;28;20090;-78
2024/02/23 06:08:26;;;;;;;1.75;0.65;;;5.60;99.90;;;;;;4932438;29;20035;-78
2024/02/23 06:10:51;;;;;;;4.20;0.30;;;5.60;99.90;;;;;;4929143;28;20055;-79
2024/02/23 06:13:18;;;;;;;2.75;0.30;;;5.60;99.90;;;;;;4943475;28;20031;-79
2024/02/23 06:15:44;;;;;;;3.20;0.50;;;5.50;99.90;;;;;;4942754;28;20046;-78
2024/02/23 06:18:09;;;;;;;3.42;0.30;;;5.50;99.90;;;;;;4928294;29;20039;-77
2024/02/23 06:20:35;;;;;;;8.40;0.50;;;5.50;99.90;;;;;;4928383;28;20549;-78
2024/02/23 06:23:00;;;;;;;4.28;0.93;;;5.50;99.90;;;;;;4920841;29;20031;-78
2024/02/23 06:25:26;;;;;;;2.10;0.43;;;5.50;99.90;;;;;;4928383;29;20039;-78
2024/02/23 06:27:51;;;;;;;2.92;0.63;;;5.50;99.90;;;;;;4943706;28;20046;-79
2024/02/23 06:30:17;;;;;;;1.67;0.50;;;5.50;99.90;;;;;;4928392;28;20050;-79
2024/02/23 06:32:43;;;;;;;5.18;0.50;;;5.50;99.90;;;;;;4909248;28;20666;-79
2024/02/23 06:35:12;;;;;;;0.17;0.08;;;5.60;99.90;;;;;;4943999;28;20035;-80
2024/02/23 06:37:37;;;;;;;0.85;0.40;;;5.50;99.90;;;;;;4945646;28;20043;-80
2024/02/23 06:40:04;;;;;;;4.75;0.80;;;5.50;99.90;;;;;;4946891;28;20046;-80
2024/02/23 06:42:29;;;;;;;1.30;0.43;;;5.50;99.90;;;;;;4916485;28;20046;-80
2024/02/23 06:44:55;;;;;;;1.27;0.10;;;5.40;99.90;;;;;;4919929;29;20596;-80
2024/02/23 06:47:24;;;;;;;2.72;0.90;;;5.40;99.90;;;;;;4922306;28;20043;-77
2024/02/23 06:49:50;;;;;;;5.60;0.73;;;5.40;99.90;;;;;;4910466;28;20043;-78
2024/02/23 06:52:16;;;;;;;6.45;0.52;;;5.40;99.90;;;;;;4942121;28;20046;-79
2024/02/23 06:54:41;;;;;;;1.63;0.35;;;5.40;99.90;;;;;;4914520;28;20501;-85
2024/02/23 06:57:07;;;;;;;1.38;0.30;;;5.40;99.90;;;;;;4937733;28;20059;-82
2024/02/23 06:59:33;;;;;;;0.68;0.40;;;5.40;99.90;;;;;;4951461;28;20035;-85
2024/02/23 07:01:58;;;;;;;2.20;0.50;;;5.50;99.90;;;;;;4931211;29;20054;-85
2024/02/23 07:04:29;;;;;;;6.50;1.05;;;5.40;99.90;;;;;;4930422;29;20035;-87
2024/02/23 07:06:57;;;;;;;2.90;1.58;;;5.40;99.90;;;;;;4949892;28;20484;-86
2024/02/23 07:09:23;;;;;;;3.63;0.70;;;5.40;99.90;;;;;;4945113;28;20046;-85
2024/02/23 07:11:50;;;;;;;4.15;0.63;;;5.40;99.90;;;;;;4946089;28;20032;-86
2024/02/23 07:14:17;;;;;;;12.20;1.15;;;5.40;99.90;;;;;;4932160;28;20028;-85
2024/02/23 07:16:42;;;;;;;6.22;0.70;;;5.40;99.90;;;;;;4942517;28;20778;-84
2024/02/23 07:19:09;;;;;;;4.68;0.90;;;5.40;99.90;;;;;;4914585;29;20039;-81
2024/02/23 07:21:35;;;;;;;1.58;0.57;;;5.50;99.90;;;;;;4914838;29;20585;-83
2024/02/23 07:24:00;;;;;;;4.35;1.08;;;5.50;99.90;;;;;;4946835;29;20055;-83
2024/02/23 07:26:29;;;;;;;2.17;0.50;;;5.50;99.90;;;;;;4930447;29;20516;-83
2024/02/23 07:28:55;;;;;;;5.10;0.65;;;5.50;99.90;;;;;;4943782;28;20032;-82
2024/02/23 07:31:20;;;;;;;3.70;0.75;;;5.60;99.90;;;;;;4941955;28;20423;-82
2024/02/23 07:33:46;;;;;;;2.25;0.70;;;5.60;99.90;;;;;;4943873;28;20031;-82
2024/02/23 07:36:17;;;;;;;3.72;0.43;;;5.70;99.90;;;;;;4958166;28;20027;-83
2024/02/23 07:38:44;;;;;;;6.93;0.60;;;5.70;99.90;;;;;;4929582;28;20572;-82
2024/02/23 07:41:10;;;;;;;5.07;1.00;;;5.60;99.90;;;;;;4929027;28;20079;-80
2024/02/23 07:43:36;;;;;;;6.95;1.25;;;5.70;99.90;;;;;;4925874;28;20043;-83
2024/02/23 07:46:12;;;;;;;1.85;0.20;;;5.70;99.90;;;;;;4921559;28;20031;-85
2024/02/23 07:48:40;;;;;;;1.20;0.75;;;5.80;99.90;;;;;;4949058;28;20023;-82
2024/02/23 07:51:06;;;;;;;0.22;0.22;;;5.90;99.90;;;;;;4930467;29;20453;-84
2024/02/23 07:53:32;;;;;;;8.52;2.92;;;5.80;99.90;;;;;;4930274;28;20027;-80
2024/02/23 07:56:01;;;;;;;0.80;0.20;;;5.90;99.90;;;;;;4961169;28;20066;-83
2024/02/23 07:58:27;;;;;;;2.70;1.00;;;5.90;99.90;;;;;;4930414;28;20039;-84
2024/02/23 08:00:53;;;;;;;3.10;0.52;;;5.90;99.90;;;;;;4930626;29;20039;-83
2024/02/23 08:03:19;;;;;;;5.45;0.90;;;6.00;99.90;;;;;;4947401;28;20039;-84
2024/02/23 08:05:45;;;;;;;4.07;0.82;;;6.00;99.90;;;;;;4944089;28;20058;-84
2024/02/23 08:08:12;;;;;;;2.67;0.38;;;5.90;99.90;;;;;;4916432;28;20031;-82
2024/02/23 08:10:37;;;;;;;3.80;0.50;;;5.90;99.90;;;;;;4942519;28;20047;-83
2024/02/23 08:13:04;;;;;;;2.42;0.65;;;6.00;99.90;;;;;;4929171;29;20032;-83
2024/02/23 08:15:29;;;;;;;1.23;0.60;;;6.00;99.90;;;;;;4944912;28;20123;-83
2024/02/23 08:17:55;;;;;;;3.72;1.00;;;6.00;99.90;;;;;;4959258;28;20473;-83
2024/02/23 08:20:21;;;;;;;4.15;0.70;;;6.00;99.90;;;;;;4915726;28;20162;-83
2024/02/23 08:22:47;;;;;;;0.80;0.50;;;6.10;99.90;;;;;;4930625;28;20031;-83
2024/02/23 08:25:13;;;;;;;1.63;0.60;;;6.10;99.90;;;;;;4928474;29;20497;-82
2024/02/23 08:27:40;;;;;;;2.90;0.88;;;6.10;99.90;;;;;;4929907;29;20042;-83
2024/02/23 08:30:06;;;;;;;4.30;1.20;;;6.10;99.90;;;;;;4930010;29;20421;-82
2024/02/23 08:32:32;;;;;;;2.90;0.60;;;6.20;99.90;;;;;;4946012;28;20098;-83
2024/02/23 08:34:59;;;;;;;5.20;1.00;;;6.20;99.90;;;;;;4941199;28;20480;-83
2024/02/23 08:37:26;;;;;;;3.75;0.93;;;6.30;99.90;;;;;;4914845;28;20498;-77
2024/02/23 08:39:51;;;;;;;6.97;1.10;;;6.30;99.90;;;;;;4928658;28;20043;-76
2024/02/23 08:42:17;;;;;;;3.25;0.77;;;6.40;99.90;;;;;;4927486;28;20038;-76
2024/02/23 08:44:42;;;;;;;6.15;1.10;;;6.50;99.90;;;;;;4957199;28;20044;-77
2024/02/23 08:47:08;;;;;;;4.05;1.00;;;6.60;99.90;;;;;;4927225;28;20071;-77
2024/02/23 08:49:34;;;;;;;4.45;0.75;;;6.60;99.90;;;;;;4927916;28;20082;-77
2024/02/23 08:51:59;;;;;;;6.70;0.98;;;6.70;99.90;;;;;;4944637;28;20042;-77
2024/02/23 08:54:25;;;;;;;6.78;1.20;;;6.70;99.90;;;;;;4944636;28;20097;-77
2024/02/23 08:56:50;;;;;;;4.07;0.55;;;6.80;99.90;;;;;;4915317;28;20032;-79
2024/02/23 08:59:16;;;;;;;2.90;0.73;;;6.80;99.90;;;;;;4930397;29;20370;-77
2024/02/23 09:01:41;;;;;;;1.45;0.52;;;6.80;99.90;;;;;;4959028;28;20378;-77
2024/02/23 09:04:07;;;;;;;12.07;1.20;;;6.80;99.90;;;;;;4949330;28;20509;-77
2024/02/23 09:06:33;;;;;;;3.35;0.70;;;6.80;99.90;;;;;;4942480;28;20112;-77
2024/02/23 09:08:58;;;;;;;5.22;0.73;;;6.90;99.90;;;;;;4931421;29;20699;-77
2024/02/23 09:11:24;;;;;;;3.38;0.63;;;6.90;99.90;;;;;;4928809;29;20020;-76
2024/02/23 09:13:49;;;;;;;1.05;0.40;;;7.00;99.90;;;;;;4914096;28;20039;-82
2024/02/23 09:16:15;;;;;;;1.23;0.40;;;7.00;99.90;;;;;;4918482;28;20039;-82
2024/02/23 09:18:41;;;;;;;5.95;0.70;;;7.00;99.90;;;;;;4917433;28;20059;-81
2024/02/23 09:21:07;;;;;;;4.78;0.95;;;7.00;99.90;;;;;;4932642;28;20059;-82
2024/02/23 09:23:32;;;;;;;6.43;0.95;;;7.10;99.90;;;;;;4917949;29;20031;-82
2024/02/23 09:25:59;;;;;;;4.43;0.95;;;7.20;99.90;;;;;;4931559;29;21096;-82
2024/02/23 09:28:24;;;;;;;5.65;0.45;;;7.20;99.90;;;;;;4947286;28;20392;-83
2024/02/23 09:30:50;;;;;;;6.70;0.95;;;7.30;99.90;;;;;;4916362;28;20039;-83
2024/02/23 09:33:15;;;;;;;5.03;0.60;;;7.30;99.90;;;;;;4932471;28;20042;-83
2024/02/23 09:35:41;;;;;;;5.47;0.68;;;7.30;99.90;;;;;;4962877;28;20042;-82
2024/02/23 09:38:06;;;;;;;2.47;0.68;;;7.30;99.90;;;;;;4947772;28;20039;-83
2024/02/23 09:40:32;;;;;;;3.03;0.43;;;7.40;99.90;;;;;;4947671;29;20062;-83
2024/02/23 09:42:58;;;;;;;3.63;0.63;;;7.40;99.90;;;;;;4932821;28;20114;-83
2024/02/23 09:45:27;;;;;;;4.85;0.68;;;7.40;99.90;;;;;;4931197;29;20036;-83
2024/02/23 09:47:56;;;;;;;4.97;0.80;;;7.50;99.90;;;;;;4923188;28;20063;-82
2024/02/23 09:50:27;;;;;;;3.70;0.60;;;7.60;99.90;;;;;;4933009;28;20089;-83
2024/02/23 09:52:52;;;;;;;15.77;1.33;;;7.60;99.90;;;;;;4930331;29;20082;-83
2024/02/23 09:55:21;;;;;;;3.95;1.13;;;7.60;99.90;;;;;;4950390;28;20036;-83
2024/02/23 09:57:48;;;;;;;2.63;0.75;;;7.70;99.90;;;;;;4959044;28;20036;-83
2024/02/23 10:00:17;;;;;;;2.92;0.50;;;7.80;99.90;;;;;;4917128;28;20430;-82
2024/02/23 10:02:43;;;;;;;1.02;0.40;;;7.90;99.90;;;;;;4962065;28;20032;-81
2024/02/23 10:05:10;;;;;;;2.55;0.35;;;7.90;99.90;;;;;;4931395;28;20441;-83
2024/02/23 10:07:36;;;;;;;3.13;0.80;;;8.00;99.90;;;;;;4917029;29;20039;-84
2024/02/23 10:10:01;;;;;;;1.40;0.40;;;8.10;99.90;;;;;;4929925;28;20050;-82
2024/02/23 10:12:27;;;;;;;0.82;0.35;;;8.20;99.90;;;;;;4931226;28;20039;-85
2024/02/23 10:14:53;;;;;;;2.00;0.38;;;8.00;99.90;;;;;;4917884;28;20062;-84
2024/02/23 10:17:20;;;;;;;2.08;0.68;;;8.10;99.90;;;;;;4930721;28;20047;-84
2024/02/23 10:19:45;;;;;;;2.08;0.73;;;8.20;99.90;;;;;;4948376;28;20039;-82
2024/02/23 10:22:11;;;;;;;2.30;0.73;;;8.20;99.90;;;;;;4948309;28;20499;-83
2024/02/23 10:24:37;;;;;;;1.98;0.80;;;8.20;99.90;;;;;;4935345;28;20066;-83
2024/02/23 10:27:03;;;;;;;0.10;0.10;;;8.30;99.90;;;;;;4917258;29;20030;-84
2024/02/23 10:29:28;;;;;;;1.88;0.22;;;8.30;99.90;;;;;;4932881;28;20450;-83
2024/02/23 10:31:54;;;;;;;2.53;0.43;;;8.30;99.90;;;;;;4947659;28;20035;-84
2024/02/23 10:34:20;;;;;;;1.98;0.40;;;8.20;99.90;;;;;;4931370;28;20489;-79
2024/02/23 10:36:47;;;;;;;4.68;0.40;;;8.30;99.90;;;;;;4914027;28;20587;-79
2024/02/23 10:39:17;;;;;;;2.97;0.38;;;8.30;99.90;;;;;;4929100;28;20077;-79
2024/02/23 10:41:48;;;;;;;0.25;0.10;;;8.30;99.90;;;;;;4928202;28;20402;-79
2024/02/23 10:44:15;;;;;;;4.72;0.70;;;8.40;99.90;;;;;;4946121;28;20024;-79
2024/02/23 10:46:41;;;;;;;0.82;0.10;;;8.30;99.90;;;;;;4940967;28;20047;-79
2024/02/23 10:49:07;;;;;;;2.22;0.60;;;8.40;99.90;;;;;;4945904;28;20026;-79
2024/02/23 10:51:32;;;;;;;2.60;0.45;;;8.40;99.90;;;;;;4949091;28;20035;-79
2024/02/23 10:53:58;;;;;;;0.50;0.20;;;8.40;99.90;;;;;;4942930;28;20461;-79
2024/02/23 10:56:25;;;;;;;4.45;0.50;;;8.50;99.90;;;;;;4930757;28;20078;-79
2024/02/23 10:58:51;;;;;;;1.35;0.32;;;8.50;99.90;;;;;;4957253;28;20518;-79
2024/02/23 11:01:16;;;;;;;4.13;0.47;;;8.60;99.90;;;;;;4931557;28;20035;-78
2024/02/23 11:03:44;;;;;;;2.40;0.32;;;8.70;99.90;;;;;;4941479;28;20032;-79
2024/02/23 11:06:10;;;;;;;1.02;0.40;;;8.80;99.90;;;;;;4928494;28;20125;-78
2024/02/23 11:08:38;;;;;;;3.30;0.85;;;8.80;99.90;;;;;;4931041;29;20146;-80
2024/02/23 11:11:11;;;;;;;3.45;1.10;;;8.80;99.90;;;;;;4945281;28;20038;-80
2024/02/23 11:13:40;;;;;;;2.40;0.45;;;8.70;99.90;;;;;;4929900;29;20039;-80
2024/02/23 11:16:06;;;;;;;1.77;0.40;;;8.90;99.90;;;;;;4930724;29;20477;-78
2024/02/23 11:18:32;;;;;;;2.55;0.60;;;8.70;99.90;;;;;;4913176;29;20035;-79
2024/02/23 11:21:02;;;;;;;0.75;0.28;;;8.70;99.90;;;;;;4915533;28;20034;-79
2024/02/23 11:23:42;;;;;;;2.85;0.30;;;8.70;99.90;;;;;;4929497;28;20050;-78
2024/02/23 11:26:12;;;;;;;1.42;0.20;;;8.60;99.90;;;;;;4930293;28;20039;-80
2024/02/23 11:28:53;;;;;;;1.58;0.25;;;8.60;99.90;;;;;;4945325;28;20035;-79
2024/02/23 11:31:25;;;;;;;2.85;0.60;;;8.50;99.90;;;;;;4946127;28;20086;-79
2024/02/23 11:33:54;;;;;;;3.50;0.38;;;8.60;99.90;;;;;;4930372;28;20111;-80
2024/02/23 11:36:34;;;;;;;2.10;0.40;;;8.60;99.90;;;;;;4932520;28;20078;-85
2024/02/23 11:39:00;;;;;;;2.45;0.50;;;8.60;99.90;;;;;;4949131;28;20050;-84
2024/02/23 11:41:27;;;;;;;4.57;0.40;;;8.60;99.90;;;;;;4962322;28;20031;-83
2024/02/23 11:43:53;;;;;;;0.60;0.25;;;8.60;99.90;;;;;;4932724;28;20035;-85
2024/02/23 11:46:20;;;;;;;1.10;0.32;;;8.60;99.90;;;;;;4936806;28;20027;-83
2024/02/23 11:48:46;;;;;;;3.22;0.20;;;8.60;99.90;;;;;;4928400;28;20103;-83
2024/02/23 11:51:13;;;;;;;1.55;0.30;;;8.60;99.90;;;;;;4931218;28;20078;-84
2024/02/23 11:53:39;;;;;;;2.45;0.47;;;8.50;99.90;;;;;;4947137;28;20461;-85
2024/02/23 11:56:05;;;;;;;1.48;0.30;;;8.50;99.90;;;;;;4958300;28;20106;-85
2024/02/23 11:58:34;;;;;;;1.60;0.30;;;8.50;99.90;;;;;;4932673;28;20094;-85
2024/02/23 12:01:02;;;;;;;5.13;0.47;;;8.50;99.90;;;;;;4930226;28;20142;-84
2024/02/23 12:03:31;;;;;;;3.65;0.30;;;8.50;99.90;;;;;;4931518;28;20374;-86
2024/02/23 12:06:00;;;;;;;2.70;0.30;;;8.60;99.90;;;;;;4961729;28;20489;-85
2024/02/23 12:08:26;;;;;;;1.02;0.25;;;8.60;99.90;;;;;;4929978;28;20529;-83
2024/02/23 12:10:55;;;;;;;0.73;0.30;;;8.60;99.90;;;;;;4918292;28;20571;-84
2024/02/23 12:13:21;;;;;;;1.25;0.15;;;8.60;99.90;;;;;;4916041;28;20039;-85
2024/02/23 12:15:52;;;;;;;1.85;0.47;;;8.60;99.90;;;;;;4936402;28;20384;-85
2024/02/23 12:18:23;;;;;;;1.95;0.40;;;8.60;99.90;;;;;;4938484;28;20031;-87
2024/02/23 12:20:49;;;;;;;3.28;0.38;;;8.60;99.90;;;;;;4945011;28;20122;-85
2024/02/23 12:23:14;;;;;;;1.73;0.22;;;8.70;99.90;;;;;;4931433;28;20127;-85
2024/02/23 12:25:40;;;;;;;1.58;0.20;;;8.60;99.90;;;;;;4957504;28;20557;-85
2024/02/23 12:28:06;;;;;;;4.38;1.00;;;8.60;99.90;;;;;;4961985;28;20110;-89
2024/02/23 12:30:32;;;;;;;1.38;0.35;;;8.70;99.90;;;;;;4939079;28;20453;-88
2024/02/23 12:33:05;;;;;;;1.40;0.57;;;8.80;99.90;;;;;;4927185;28;20050;-83
2024/02/23 12:35:31;;;;;;;5.45;1.00;;;8.50;99.90;;;;;;4955480;28;20291;-86
2024/02/23 12:37:56;;;;;;;2.03;0.50;;;8.60;99.90;;;;;;4927074;28;20039;-88
2024/02/23 12:40:22;;;;;;;0.47;0.28;;;8.70;99.90;;;;;;4925018;29;20047;-88
2024/02/23 12:42:48;;;;;;;0.90;0.30;;;8.70;99.90;;;;;;4969888;28;20074;-87
2024/02/23 12:45:14;;;;;;;0.55;0.40;;;8.60;99.90;;;;;;4940436;28;20105;-80
2024/02/23 12:47:40;;;;;;;0.30;0.30;;;8.80;99.90;;;;;;4946584;28;20493;-80
2024/02/23 12:50:07;;;;;;;5.43;0.30;;;8.80;99.90;;;;;;4959782;28;20058;-79
2024/02/23 12:52:33;;;;;;;1.25;0.30;;;8.80;99.90;;;;;;4918586;29;20028;-80
2024/02/23 12:54:59;;;;;;;3.50;0.55;;;8.90;99.90;;;;;;4917636;28;24902;-80